sensor_id;sensor_type;location;lat;lon;timestamp;pressure;altitude;pressure_sealevel;temperature;humidity
21956;BME280;11142;49.930;8.606;2023-02-22T00:01:00;100014.59;;;5.78;100.00
21956;BME280;11142;49.930;8.606;2023-02-22T00:03:35;100010.34;;;5.77;100.00
21956;BME280;11142;49.930;8.606;2023-02-22T00:06:04;100013.50;;;5.84;100.00
21956;BME280;11142;49.930;8.606;2023-02-22T00:08:33;100007.78;;;5.77;100.00
21956;BME280;11142;49.930;8.606;2023-02-22T00:11:02;100012.59;;;5.66;100.00
21956;BME280;11142;49.930;8.606;2023-02-22T00:13:34;100008.88;;;5.53;100.00
21956;BME280;11142;49.930;8.606;2023-02-22T00:16:04;100003.25;;;5.45;100.00
21956;BME280;11142;49.930;8.606;2023-02-22T00:18:34;100004.47;;;5.36;100.00
21956;BME280;11142;49.930;8.606;2023-02-22T00:21:03;100000.03;;;5.40;100.00
21956;BME280;11142;49.930;8.606;2023-02-22T00:23:36;99994.25;;;5.35;100.00
21956;BME280;11142;49.930;8.606;2023-02-22T00:26:06;99995.22;;;5.32;100.00
21956;BME280;11142;49.930;8.606;2023-02-22T00:28:44;100000.81;;;5.42;100.00
21956;BME280;11142;49.930;8.606;2023-02-22T00:31:23;100003.50;;;5.39;100.00
21956;BME280;11142;49.930;8.606;2023-02-22T00:33:54;99999.97;;;5.42;100.00
21956;BME280;11142;49.930;8.606;2023-02-22T00:36:25;100003.91;;;5.49;100.00
21956;BME280;11142;49.930;8.606;2023-02-22T00:38:54;99997.88;;;5.50;100.00
21956;BME280;11142;49.930;8.606;2023-02-22T00:41:22;99994.88;;;5.40;100.00
21956;BME280;11142;49.930;8.606;2023-02-22T00:43:50;99989.09;;;5.35;100.00
21956;BME280;11142;49.930;8.606;2023-02-22T00:46:20;99989.78;;;5.20;100.00
21956;BME280;11142;49.930;8.606;2023-02-22T00:48:51;99985.53;;;5.19;100.00
21956;BME280;11142;49.930;8.606;2023-02-22T00:51:22;99992.38;;;5.39;100.00
21956;BME280;11142;49.930;8.606;2023-02-22T00:53:56;99985.81;;;5.52;100.00
21956;BME280;11142;49.930;8.606;2023-02-22T00:56:24;99983.09;;;5.55;100.00
21956;BME280;11142;49.930;8.606;2023-02-22T00:58:52;99983.91;;;5.55;100.00
21956;BME280;11142;49.930;8.606;2023-02-22T01:01:20;99982.44;;;5.50;100.00
21956;BME280;11142;49.930;8.606;2023-02-22T01:03:50;99977.09;;;5.35;100.00
21956;BME280;11142;49.930;8.606;2023-02-22T01:06:19;99966.22;;;5.29;100.00
21956;BME280;11142;49.930;8.606;2023-02-22T01:08:51;99969.00;;;5.24;100.00
21956;BME280;11142;49.930;8.606;2023-02-22T01:11:19;99966.06;;;5.13;100.00
21956;BME280;11142;49.930;8.606;2023-02-22T01:13:50;99956.72;;;5.11;100.00
21956;BME280;11142;49.930;8.606;2023-02-22T01:16:20;99965.72;;;5.21;100.00
21956;BME280;11142;49.930;8.606;2023-02-22T01:18:48;99966.19;;;5.10;100.00
21956;BME280;11142;49.930;8.606;2023-02-22T01:21:16;99959.84;;;5.17;100.00
21956;BME280;11142;49.930;8.606;2023-02-22T01:23:45;99957.06;;;5.03;100.00
21956;BME280;11142;49.930;8.606;2023-02-22T01:26:15;99951.25;;;4.98;100.00
21956;BME280;11142;49.930;8.606;2023-02-22T01:28:45;99955.25;;;5.05;100.00
21956;BME280;11142;49.930;8.606;2023-02-22T01:31:13;99951.84;;;5.05;100.00
21956;BME280;11142;49.930;8.606;2023-02-22T01:33:43;99951.00;;;5.04;100.00
21956;BME280;11142;49.930;8.606;2023-02-22T01:36:12;99947.09;;;4.96;100.00
21956;BME280;11142;49.930;8.606;2023-02-22T01:38:41;99947.94;;;4.96;100.00
21956;BME280;11142;49.930;8.606;2023-02-22T01:41:14;99939.34;;;4.97;100.00
21956;BME280;11142;49.930;8.606;2023-02-22T01:43:44;99933.66;;;5.09;100.00
21956;BME280;11142;49.930;8.606;2023-02-22T01:46:18;99938.78;;;5.09;100.00
21956;BME280;11142;49.930;8.606;2023-02-22T01:48:48;99934.63;;;5.07;100.00
21956;BME280;11142;49.930;8.606;2023-02-22T01:51:18;99934.63;;;5.07;100.00
21956;BME280;11142;49.930;8.606;2023-02-22T01:53:49;99927.56;;;4.92;100.00
21956;BME280;11142;49.930;8.606;2023-02-22T01:56:21;99932.03;;;4.88;100.00
21956;BME280;11142;49.930;8.606;2023-02-22T01:58:51;99919.69;;;4.14;100.00
21956;BME280;11142;49.930;8.606;2023-02-22T02:01:22;99921.25;;;3.96;100.00
21956;BME280;11142;49.930;8.606;2023-02-22T02:03:53;99921.91;;;3.80;100.00
21956;BME280;11142;49.930;8.606;2023-02-22T02:06:24;99917.06;;;3.72;100.00
21956;BME280;11142;49.930;8.606;2023-02-22T02:08:54;99910.47;;;3.65;100.00
21956;BME280;11142;49.930;8.606;2023-02-22T02:11:26;99912.84;;;3.93;100.00
21956;BME280;11142;49.930;8.606;2023-02-22T02:13:58;99909.28;;;4.17;100.00
21956;BME280;11142;49.930;8.606;2023-02-22T02:16:31;99911.53;;;4.46;100.00
21956;BME280;11142;49.930;8.606;2023-02-22T02:19:02;99918.53;;;4.63;100.00
21956;BME280;11142;49.930;8.606;2023-02-22T02:27:07;99901.63;;;4.37;100.00
21956;BME280;11142;49.930;8.606;2023-02-22T02:35:11;99907.84;;;4.52;100.00
21956;BME280;11142;49.930;8.606;2023-02-22T02:37:45;99909.13;;;4.42;100.00
21956;BME280;11142;49.930;8.606;2023-02-22T02:40:17;99897.75;;;4.27;100.00
21956;BME280;11142;49.930;8.606;2023-02-22T02:42:50;99896.34;;;3.98;100.00
21956;BME280;11142;49.930;8.606;2023-02-22T02:45:22;99901.31;;;3.81;100.00
21956;BME280;11142;49.930;8.606;2023-02-22T02:47:53;99898.09;;;3.76;100.00
21956;BME280;11142;49.930;8.606;2023-02-22T02:50:26;99893.97;;;3.72;100.00
21956;BME280;11142;49.930;8.606;2023-02-22T02:52:58;99896.38;;;3.32;100.00
21956;BME280;11142;49.930;8.606;2023-02-22T02:55:28;99891.63;;;3.21;100.00
21956;BME280;11142;49.930;8.606;2023-02-22T02:57:58;99895.50;;;3.33;100.00
21956;BME280;11142;49.930;8.606;2023-02-22T03:00:27;99892.00;;;3.57;100.00
21956;BME280;11142;49.930;8.606;2023-02-22T03:03:03;99879.00;;;3.83;100.00
21956;BME280;11142;49.930;8.606;2023-02-22T03:05:46;99881.31;;;3.89;100.00
21956;BME280;11142;49.930;8.606;2023-02-22T03:08:20;99879.06;;;3.82;100.00
21956;BME280;11142;49.930;8.606;2023-02-22T03:10:58;99877.44;;;3.57;100.00
21956;BME280;11142;49.930;8.606;2023-02-22T03:13:32;99871.59;;;3.54;100.00
21956;BME280;11142;49.930;8.606;2023-02-22T03:16:06;99877.53;;;3.33;100.00
21956;BME280;11142;49.930;8.606;2023-02-22T03:18:41;99861.44;;;3.06;100.00
21956;BME280;11142;49.930;8.606;2023-02-22T03:21:14;99855.38;;;2.85;100.00
21956;BME280;11142;49.930;8.606;2023-02-22T03:23:49;99850.28;;;2.84;100.00
21956;BME280;11142;49.930;8.606;2023-02-22T03:26:23;99848.59;;;3.07;100.00
21956;BME280;11142;49.930;8.606;2023-02-22T03:28:55;99839.53;;;3.20;100.00
21956;BME280;11142;49.930;8.606;2023-02-22T03:31:28;99845.53;;;3.64;100.00
21956;BME280;11142;49.930;8.606;2023-02-22T03:34:00;99848.09;;;3.64;100.00
21956;BME280;11142;49.930;8.606;2023-02-22T03:36:32;99850.97;;;3.57;100.00
21956;BME280;11142;49.930;8.606;2023-02-22T03:39:05;99850.09;;;3.78;100.00
21956;BME280;11142;49.930;8.606;2023-02-22T03:41:34;99853.72;;;3.94;100.00
21956;BME280;11142;49.930;8.606;2023-02-22T03:44:05;99861.38;;;3.96;100.00
21956;BME280;11142;49.930;8.606;2023-02-22T03:46:35;99853.56;;;3.99;100.00
21956;BME280;11142;49.930;8.606;2023-02-22T03:49:08;99857.59;;;4.04;100.00
21956;BME280;11142;49.930;8.606;2023-02-22T03:51:40;99854.75;;;3.90;100.00
21956;BME280;11142;49.930;8.606;2023-02-22T03:54:08;99863.28;;;3.91;100.00
21956;BME280;11142;49.930;8.606;2023-02-22T03:56:47;99856.25;;;3.96;100.00
21956;BME280;11142;49.930;8.606;2023-02-22T03:59:19;99862.28;;;3.95;100.00
21956;BME280;11142;49.930;8.606;2023-02-22T04:01:52;99856.53;;;3.88;100.00
21956;BME280;11142;49.930;8.606;2023-02-22T04:04:21;99860.53;;;3.95;100.00
21956;BME280;11142;49.930;8.606;2023-02-22T04:06:52;99858.50;;;4.03;100.00
21956;BME280;11142;49.930;8.606;2023-02-22T04:09:20;99862.50;;;4.10;100.00
21956;BME280;11142;49.930;8.606;2023-02-22T04:11:48;99861.91;;;4.04;100.00
21956;BME280;11142;49.930;8.606;2023-02-22T04:17:57;99852.16;;;3.48;100.00
21956;BME280;11142;49.930;8.606;2023-02-22T04:20:26;99847.53;;;3.78;100.00
21956;BME280;11142;49.930;8.606;2023-02-22T04:23:03;99854.22;;;3.82;100.00
21956;BME280;11142;49.930;8.606;2023-02-22T04:25:31;99853.44;;;4.02;100.00
21956;BME280;11142;49.930;8.606;2023-02-22T04:28:09;99849.16;;;4.02;100.00
21956;BME280;11142;49.930;8.606;2023-02-22T04:30:49;99852.84;;;4.15;100.00
21956;BME280;11142;49.930;8.606;2023-02-22T04:33:19;99845.59;;;4.25;100.00
21956;BME280;11142;49.930;8.606;2023-02-22T04:35:47;99852.50;;;4.24;100.00
21956;BME280;11142;49.930;8.606;2023-02-22T04:38:18;99855.31;;;4.18;100.00
21956;BME280;11142;49.930;8.606;2023-02-22T04:40:47;99846.91;;;4.15;100.00
21956;BME280;11142;49.930;8.606;2023-02-22T04:43:18;99858.06;;;4.14;100.00
21956;BME280;11142;49.930;8.606;2023-02-22T04:45:51;99858.69;;;4.19;100.00
21956;BME280;11142;49.930;8.606;2023-02-22T04:48:19;99857.75;;;4.21;100.00
21956;BME280;11142;49.930;8.606;2023-02-22T04:50:47;99855.13;;;4.23;100.00
21956;BME280;11142;49.930;8.606;2023-02-22T04:53:19;99849.66;;;4.10;100.00
21956;BME280;11142;49.930;8.606;2023-02-22T04:55:47;99846.31;;;4.08;100.00
21956;BME280;11142;49.930;8.606;2023-02-22T04:58:16;99839.88;;;3.98;100.00
21956;BME280;11142;49.930;8.606;2023-02-22T05:00:44;99839.13;;;3.96;100.00
21956;BME280;11142;49.930;8.606;2023-02-22T05:03:13;99843.88;;;4.05;100.00
21956;BME280;11142;49.930;8.606;2023-02-22T05:05:44;99832.56;;;3.89;100.00
21956;BME280;11142;49.930;8.606;2023-02-22T05:08:13;99836.66;;;3.51;100.00
21956;BME280;11142;49.930;8.606;2023-02-22T05:10:43;99833.63;;;3.40;100.00
21956;BME280;11142;49.930;8.606;2023-02-22T05:13:13;99830.44;;;3.35;100.00
21956;BME280;11142;49.930;8.606;2023-02-22T05:15:41;99831.19;;;3.59;100.00
21956;BME280;11142;49.930;8.606;2023-02-22T05:18:09;99835.19;;;3.66;100.00
21956;BME280;11142;49.930;8.606;2023-02-22T05:20:37;99828.84;;;3.74;100.00
21956;BME280;11142;49.930;8.606;2023-02-22T05:23:06;99830.06;;;3.66;100.00
21956;BME280;11142;49.930;8.606;2023-02-22T05:25:34;99826.06;;;3.59;100.00
21956;BME280;11142;49.930;8.606;2023-02-22T05:28:07;99832.75;;;3.63;100.00
21956;BME280;11142;49.930;8.606;2023-02-22T05:30:38;99829.34;;;3.62;100.00
21956;BME280;11142;49.930;8.606;2023-02-22T05:33:07;99825.19;;;3.60;100.00
21956;BME280;11142;49.930;8.606;2023-02-22T05:35:35;99824.34;;;3.59;100.00
21956;BME280;11142;49.930;8.606;2023-02-22T05:38:04;99825.19;;;3.60;100.00
21956;BME280;11142;49.930;8.606;2023-02-22T05:40:33;99828.25;;;3.68;100.00
21956;BME280;11142;49.930;8.606;2023-02-22T05:43:05;99823.56;;;3.79;100.00
21956;BME280;11142;49.930;8.606;2023-02-22T05:45:34;99822.19;;;3.70;100.00
21956;BME280;11142;49.930;8.606;2023-02-22T05:48:03;99823.34;;;3.63;100.00
21956;BME280;11142;49.930;8.606;2023-02-22T05:50:31;99813.13;;;3.62;100.00
21956;BME280;11142;49.930;8.606;2023-02-22T05:53:00;99814.63;;;3.67;100.00
21956;BME280;11142;49.930;8.606;2023-02-22T05:55:28;99812.88;;;3.68;100.00
21956;BME280;11142;49.930;8.606;2023-02-22T05:57:57;99814.44;;;3.72;100.00
21956;BME280;11142;49.930;8.606;2023-02-22T06:00:27;99818.69;;;3.73;100.00
21956;BME280;11142;49.930;8.606;2023-02-22T06:02:55;99812.34;;;3.82;100.00
21956;BME280;11142;49.930;8.606;2023-02-22T06:05:24;99819.84;;;3.86;100.00
21956;BME280;11142;49.930;8.606;2023-02-22T06:07:52;99815.88;;;3.79;100.00
21956;BME280;11142;49.930;8.606;2023-02-22T06:10:21;99821.63;;;3.84;100.00
21956;BME280;11142;49.930;8.606;2023-02-22T06:12:49;99818.91;;;3.89;100.00
21956;BME280;11142;49.930;8.606;2023-02-22T06:15:18;99829.53;;;4.00;100.00
21956;BME280;11142;49.930;8.606;2023-02-22T06:17:48;99827.38;;;4.11;100.00
21956;BME280;11142;49.930;8.606;2023-02-22T06:20:17;99835.22;;;4.08;100.00
21956;BME280;11142;49.930;8.606;2023-02-22T06:22:46;99829.13;;;4.10;100.00
21956;BME280;11142;49.930;8.606;2023-02-22T06:25:14;99835.72;;;4.16;100.00
21956;BME280;11142;49.930;8.606;2023-02-22T06:27:43;99835.16;;;4.29;100.00
21956;BME280;11142;49.930;8.606;2023-02-22T06:30:14;99843.00;;;4.26;100.00
21956;BME280;11142;49.930;8.606;2023-02-22T06:32:43;99843.13;;;4.23;100.00
21956;BME280;11142;49.930;8.606;2023-02-22T06:35:13;99848.38;;;4.20;100.00
21956;BME280;11142;49.930;8.606;2023-02-22T06:37:42;99849.94;;;4.24;100.00
21956;BME280;11142;49.930;8.606;2023-02-22T06:40:10;99845.84;;;4.41;100.00
21956;BME280;11142;49.930;8.606;2023-02-22T06:42:38;99846.38;;;4.47;100.00
21956;BME280;11142;49.930;8.606;2023-02-22T06:45:07;99847.09;;;4.51;100.00
21956;BME280;11142;49.930;8.606;2023-02-22T06:47:39;99846.94;;;4.54;100.00
21956;BME280;11142;49.930;8.606;2023-02-22T06:50:16;99845.94;;;4.58;100.00
21956;BME280;11142;49.930;8.606;2023-02-22T06:52:46;99845.69;;;4.44;100.00
21956;BME280;11142;49.930;8.606;2023-02-22T06:55:18;99838.88;;;4.43;100.00
21956;BME280;11142;49.930;8.606;2023-02-22T06:57:46;99849.94;;;4.24;100.00
21956;BME280;11142;49.930;8.606;2023-02-22T07:00:15;99850.75;;;4.45;100.00
21956;BME280;11142;49.930;8.606;2023-02-22T07:02:44;99848.94;;;4.67;100.00
21956;BME280;11142;49.930;8.606;2023-02-22T07:05:14;99846.06;;;4.94;100.00
21956;BME280;11142;49.930;8.606;2023-02-22T07:07:43;99848.09;;;5.24;100.00
21956;BME280;11142;49.930;8.606;2023-02-22T07:10:16;99858.03;;;5.51;100.00
21956;BME280;11142;49.930;8.606;2023-02-22T07:12:45;99871.78;;;5.68;100.00
21956;BME280;11142;49.930;8.606;2023-02-22T07:15:14;99880.34;;;5.69;100.00
21956;BME280;11142;49.930;8.606;2023-02-22T07:17:43;99889.38;;;5.40;100.00
21956;BME280;11142;49.930;8.606;2023-02-22T07:20:11;99894.84;;;4.95;100.00
21956;BME280;11142;49.930;8.606;2023-02-22T07:22:39;99895.41;;;4.63;100.00
21956;BME280;11142;49.930;8.606;2023-02-22T07:25:08;99893.41;;;4.07;100.00
21956;BME280;11142;49.930;8.606;2023-02-22T07:27:38;99894.31;;;3.41;100.00
21956;BME280;11142;49.930;8.606;2023-02-22T07:30:07;99892.41;;;3.46;100.00
21956;BME280;11142;49.930;8.606;2023-02-22T07:32:42;99883.38;;;3.36;100.00
21956;BME280;11142;49.930;8.606;2023-02-22T07:35:13;99887.22;;;3.69;100.00
21956;BME280;11142;49.930;8.606;2023-02-22T07:37:41;99884.09;;;4.47;100.00
21956;BME280;11142;49.930;8.606;2023-02-22T07:40:09;99894.94;;;5.12;100.00
21956;BME280;11142;49.930;8.606;2023-02-22T07:42:53;99891.53;;;5.68;100.00
21956;BME280;11142;49.930;8.606;2023-02-22T07:45:21;99894.22;;;6.19;100.00
21956;BME280;11142;49.930;8.606;2023-02-22T07:47:50;99906.00;;;6.42;100.00
21956;BME280;11142;49.930;8.606;2023-02-22T07:50:19;99905.13;;;6.76;100.00
21956;BME280;11142;49.930;8.606;2023-02-22T07:52:48;99911.44;;;6.87;100.00
21956;BME280;11142;49.930;8.606;2023-02-22T07:55:17;99916.56;;;7.20;100.00
21956;BME280;11142;49.930;8.606;2023-02-22T07:57:45;99913.22;;;7.35;100.00
21956;BME280;11142;49.930;8.606;2023-02-22T08:00:16;99910.03;;;7.30;100.00
21956;BME280;11142;49.930;8.606;2023-02-22T08:02:49;99915.97;;;7.32;100.00
21956;BME280;11142;49.930;8.606;2023-02-22T08:05:18;99918.38;;;7.35;100.00
21956;BME280;11142;49.930;8.606;2023-02-22T08:07:46;99909.28;;;7.28;100.00
21956;BME280;11142;49.930;8.606;2023-02-22T08:10:15;99911.72;;;7.63;100.00
21956;BME280;11142;49.930;8.606;2023-02-22T08:12:43;99908.63;;;7.72;100.00
21956;BME280;11142;49.930;8.606;2023-02-22T08:15:14;99912.13;;;8.02;100.00
21956;BME280;11142;49.930;8.606;2023-02-22T08:17:44;99913.56;;;8.37;100.00
21956;BME280;11142;49.930;8.606;2023-02-22T08:20:12;99917.59;;;8.57;100.00
21956;BME280;11142;49.930;8.606;2023-02-22T08:22:41;99913.78;;;8.78;100.00
21956;BME280;11142;49.930;8.606;2023-02-22T08:25:10;99908.25;;;8.98;100.00
21956;BME280;11142;49.930;8.606;2023-02-22T08:27:38;99914.97;;;9.29;100.00
21956;BME280;11142;49.930;8.606;2023-02-22T08:30:06;99916.34;;;9.63;100.00
21956;BME280;11142;49.930;8.606;2023-02-22T08:32:34;99910.72;;;9.97;100.00
21956;BME280;11142;49.930;8.606;2023-02-22T08:35:04;99916.66;;;10.12;100.00
21956;BME280;11142;49.930;8.606;2023-02-22T08:37:33;99912.72;;;10.33;100.00
21956;BME280;11142;49.930;8.606;2023-02-22T08:40:01;99918.19;;;10.55;100.00
21956;BME280;11142;49.930;8.606;2023-02-22T08:42:29;99915.41;;;10.71;100.00
21956;BME280;11142;49.930;8.606;2023-02-22T08:44:57;99915.00;;;11.02;100.00
21956;BME280;11142;49.930;8.606;2023-02-22T08:47:25;99913.59;;;11.47;100.00
21956;BME280;11142;49.930;8.606;2023-02-22T08:49:53;99917.44;;;11.91;100.00
21956;BME280;11142;49.930;8.606;2023-02-22T08:52:22;99913.25;;;12.01;100.00
21956;BME280;11142;49.930;8.606;2023-02-22T08:54:50;99916.28;;;11.95;100.00
21956;BME280;11142;49.930;8.606;2023-02-22T08:57:18;99926.13;;;11.79;100.00
21956;BME280;11142;49.930;8.606;2023-02-22T08:59:47;99919.78;;;11.83;100.00
21956;BME280;11142;49.930;8.606;2023-02-22T09:02:16;99919.69;;;11.71;95.40
21956;BME280;11142;49.930;8.606;2023-02-22T09:04:44;99921.03;;;11.64;100.00
21956;BME280;11142;49.930;8.606;2023-02-22T09:07:13;99920.72;;;11.69;98.80
21956;BME280;11142;49.930;8.606;2023-02-22T09:09:43;99926.66;;;12.07;100.00
21956;BME280;11142;49.930;8.606;2023-02-22T09:12:11;99928.22;;;12.91;96.15
21956;BME280;11142;49.930;8.606;2023-02-22T09:14:39;99920.13;;;13.51;90.64
21956;BME280;11142;49.930;8.606;2023-02-22T09:17:08;99918.28;;;13.84;85.89
21956;BME280;11142;49.930;8.606;2023-02-22T09:19:36;99918.38;;;13.94;80.00
21956;BME280;11142;49.930;8.606;2023-02-22T09:22:04;99920.97;;;12.72;75.16
21956;BME280;11142;49.930;8.606;2023-02-22T09:24:32;99923.78;;;12.69;90.35
21956;BME280;11142;49.930;8.606;2023-02-22T09:27:01;99924.16;;;13.44;88.61
21956;BME280;11142;49.930;8.606;2023-02-22T09:29:32;99920.50;;;13.89;86.53
21956;BME280;11142;49.930;8.606;2023-02-22T09:32:00;99914.25;;;14.34;80.78
21956;BME280;11142;49.930;8.606;2023-02-22T09:34:30;99919.22;;;14.38;72.06
21956;BME280;11142;49.930;8.606;2023-02-22T09:37:00;99912.19;;;15.21;77.29
21956;BME280;11142;49.930;8.606;2023-02-22T09:39:30;99912.56;;;15.86;70.05
21956;BME280;11142;49.930;8.606;2023-02-22T09:42:06;99909.69;;;16.09;66.24
21956;BME280;11142;49.930;8.606;2023-02-22T09:44:36;99902.66;;;15.90;66.70
21956;BME280;11142;49.930;8.606;2023-02-22T09:47:11;99910.94;;;16.53;67.20
21956;BME280;11142;49.930;8.606;2023-02-22T09:49:41;99907.19;;;16.84;61.20
21956;BME280;11142;49.930;8.606;2023-02-22T09:52:13;99900.41;;;16.91;58.47
21956;BME280;11142;49.930;8.606;2023-02-22T09:54:45;99897.72;;;16.25;63.15
21956;BME280;11142;49.930;8.606;2023-02-22T09:57:20;99893.03;;;16.19;58.96
21956;BME280;11142;49.930;8.606;2023-02-22T09:59:54;99897.56;;;15.88;64.82
21956;BME280;11142;49.930;8.606;2023-02-22T10:02:25;99905.66;;;13.13;81.07
21956;BME280;11142;49.930;8.606;2023-02-22T10:04:56;99903.50;;;12.15;96.54
21956;BME280;11142;49.930;8.606;2023-02-22T10:07:28;99908.63;;;12.52;95.13
21956;BME280;11142;49.930;8.606;2023-02-22T10:09:58;99896.06;;;13.14;91.49
21956;BME280;11142;49.930;8.606;2023-02-22T10:12:35;99890.91;;;12.68;86.54
21956;BME280;11142;49.930;8.606;2023-02-22T10:15:24;99892.22;;;13.73;91.11
21956;BME280;11142;49.930;8.606;2023-02-22T10:17:59;99885.47;;;14.87;82.44
21956;BME280;11142;49.930;8.606;2023-02-22T10:20:38;99889.50;;;15.01;72.48
21956;BME280;11142;49.930;8.606;2023-02-22T10:23:10;99905.56;;;15.97;69.04
21956;BME280;11142;49.930;8.606;2023-02-22T10:25:40;99886.63;;;15.64;72.22
21956;BME280;11142;49.930;8.606;2023-02-22T10:28:12;99885.06;;;15.52;67.90
21956;BME280;11142;49.930;8.606;2023-02-22T10:30:43;99891.22;;;15.91;63.92
21956;BME280;11142;49.930;8.606;2023-02-22T10:33:16;99892.81;;;13.77;79.47
21956;BME280;11142;49.930;8.606;2023-02-22T10:35:46;99892.63;;;12.45;100.00
21956;BME280;11142;49.930;8.606;2023-02-22T10:38:16;99880.97;;;11.67;100.00
21956;BME280;11142;49.930;8.606;2023-02-22T10:40:47;99873.03;;;11.94;100.00
21956;BME280;11142;49.930;8.606;2023-02-22T10:43:17;99880.44;;;13.14;100.00
21956;BME280;11142;49.930;8.606;2023-02-22T10:45:45;99874.91;;;15.19;88.54
21956;BME280;11142;49.930;8.606;2023-02-22T10:48:14;99875.66;;;16.66;70.63
21956;BME280;11142;49.930;8.606;2023-02-22T10:50:44;99874.00;;;16.17;68.33
21956;BME280;11142;49.930;8.606;2023-02-22T10:53:13;99874.16;;;16.06;67.06
21956;BME280;11142;49.930;8.606;2023-02-22T10:58:39;99878.94;;;16.49;66.71
21956;BME280;11142;49.930;8.606;2023-02-22T11:01:16;99877.72;;;16.63;63.98
21956;BME280;11142;49.930;8.606;2023-02-22T11:03:46;99866.97;;;16.66;66.91
21956;BME280;11142;49.930;8.606;2023-02-22T11:06:22;99868.03;;;16.82;62.13
21956;BME280;11142;49.930;8.606;2023-02-22T11:08:50;99869.44;;;15.71;70.03
21956;BME280;11142;49.930;8.606;2023-02-22T11:11:30;99867.91;;;15.69;72.27
21956;BME280;11142;49.930;8.606;2023-02-22T11:14:00;99864.91;;;16.12;72.64
21956;BME280;11142;49.930;8.606;2023-02-22T11:16:32;99862.09;;;17.44;65.98
21956;BME280;11142;49.930;8.606;2023-02-22T11:19:04;99860.09;;;15.98;69.79
21956;BME280;11142;49.930;8.606;2023-02-22T11:21:35;99859.88;;;16.85;64.67
21956;BME280;11142;49.930;8.606;2023-02-22T11:24:04;99853.56;;;18.58;56.93
21956;BME280;11142;49.930;8.606;2023-02-22T11:26:36;99850.34;;;16.84;64.89
21956;BME280;11142;49.930;8.606;2023-02-22T11:29:19;99840.50;;;18.31;56.55
21956;BME280;11142;49.930;8.606;2023-02-22T11:31:47;99837.28;;;18.80;56.93
21956;BME280;11142;49.930;8.606;2023-02-22T11:34:27;99838.03;;;20.55;51.37
21956;BME280;11142;49.930;8.606;2023-02-22T11:36:56;99830.72;;;20.89;45.69
21956;BME280;11142;49.930;8.606;2023-02-22T11:39:25;99835.25;;;22.27;45.33
21956;BME280;11142;49.930;8.606;2023-02-22T11:41:55;99831.47;;;22.66;44.06
21956;BME280;11142;49.930;8.606;2023-02-22T11:44:25;99836.72;;;23.90;40.00
21956;BME280;11142;49.930;8.606;2023-02-22T11:46:54;99832.31;;;24.18;41.85
21956;BME280;11142;49.930;8.606;2023-02-22T11:49:23;99835.47;;;24.84;38.72
21956;BME280;11142;49.930;8.606;2023-02-22T11:52:03;99829.00;;;24.93;36.27
21956;BME280;11142;49.930;8.606;2023-02-22T11:54:42;99827.47;;;25.59;37.34
21956;BME280;11142;49.930;8.606;2023-02-22T11:57:20;99821.84;;;26.08;35.48
21956;BME280;11142;49.930;8.606;2023-02-22T12:00:04;99827.00;;;25.43;36.82
21956;BME280;11142;49.930;8.606;2023-02-22T12:02:48;99824.28;;;24.89;37.18
21956;BME280;11142;49.930;8.606;2023-02-22T12:05:29;99812.25;;;23.38;37.91
21956;BME280;11142;49.930;8.606;2023-02-22T12:08:09;99812.66;;;21.56;41.43
21956;BME280;11142;49.930;8.606;2023-02-22T12:10:49;99814.56;;;20.92;43.82
21956;BME280;11142;49.930;8.606;2023-02-22T12:13:27;99801.53;;;19.37;47.89
21956;BME280;11142;49.930;8.606;2023-02-22T12:16:01;99796.81;;;17.69;62.94
21956;BME280;11142;49.930;8.606;2023-02-22T12:18:34;99790.34;;;18.16;57.48
21956;BME280;11142;49.930;8.606;2023-02-22T12:21:06;99791.72;;;19.55;56.37
21956;BME280;11142;49.930;8.606;2023-02-22T12:23:38;99788.09;;;21.70;48.01
21956;BME280;11142;49.930;8.606;2023-02-22T12:26:12;99784.41;;;23.42;42.68
21956;BME280;11142;49.930;8.606;2023-02-22T12:28:43;99791.28;;;23.93;39.59
21956;BME280;11142;49.930;8.606;2023-02-22T12:31:17;99789.94;;;22.96;39.83
21956;BME280;11142;49.930;8.606;2023-02-22T12:33:50;99786.25;;;24.05;40.08
21956;BME280;11142;49.930;8.606;2023-02-22T12:36:24;99790.09;;;25.67;35.19
21956;BME280;11142;49.930;8.606;2023-02-22T12:38:53;99781.75;;;22.77;40.51
21956;BME280;11142;49.930;8.606;2023-02-22T12:41:24;99779.13;;;24.26;39.35
21956;BME280;11142;49.930;8.606;2023-02-22T12:43:55;99780.72;;;25.84;36.23
21956;BME280;11142;49.930;8.606;2023-02-22T12:46:29;99790.69;;;28.32;32.18
21956;BME280;11142;49.930;8.606;2023-02-22T12:48:59;99795.09;;;29.24;29.44
21956;BME280;11142;49.930;8.606;2023-02-22T12:51:32;99789.38;;;28.41;30.04
21956;BME280;11142;49.930;8.606;2023-02-22T12:54:04;99791.97;;;28.91;30.69
21956;BME280;11142;49.930;8.606;2023-02-22T12:56:35;99786.34;;;29.47;28.29
21956;BME280;11142;49.930;8.606;2023-02-22T12:59:05;99786.69;;;30.68;27.29
21956;BME280;11142;49.930;8.606;2023-02-22T13:01:37;99782.72;;;30.71;27.51
21956;BME280;11142;49.930;8.606;2023-02-22T13:04:08;99785.50;;;30.87;26.88
21956;BME280;11142;49.930;8.606;2023-02-22T13:06:53;99785.13;;;32.42;25.29
21956;BME280;11142;49.930;8.606;2023-02-22T13:09:30;99788.28;;;32.55;25.11
21956;BME280;11142;49.930;8.606;2023-02-22T13:12:01;99775.78;;;32.11;25.73
21956;BME280;11142;49.930;8.606;2023-02-22T13:14:34;99774.81;;;30.76;27.48
21956;BME280;11142;49.930;8.606;2023-02-22T13:17:07;99769.81;;;29.68;28.65
21956;BME280;11142;49.930;8.606;2023-02-22T13:19:41;99758.59;;;25.64;32.48
21956;BME280;11142;49.930;8.606;2023-02-22T13:22:15;99757.44;;;27.03;33.21
21956;BME280;11142;49.930;8.606;2023-02-22T13:24:50;99750.44;;;27.53;31.07
21956;BME280;11142;49.930;8.606;2023-02-22T13:27:22;99751.88;;;26.34;32.72
21956;BME280;11142;49.930;8.606;2023-02-22T13:29:56;99745.44;;;25.50;33.48
21956;BME280;11142;49.930;8.606;2023-02-22T13:32:30;99742.84;;;27.12;32.78
21956;BME280;11142;49.930;8.606;2023-02-22T13:35:09;99730.97;;;23.02;37.51
21956;BME280;11142;49.930;8.606;2023-02-22T13:40:46;99741.28;;;27.36;31.86